sensor_id;sensor_type;location;lat;lon;timestamp;pressure;altitude;pressure_sealevel;temperature;humidity
41706;BME280;27385;51.096;17.190;2023-04-04T00:01:35;101414.98;;;-0.57;64.50
41706;BME280;27385;51.096;17.190;2023-04-04T00:04:06;101409.44;;;-0.61;64.48
41706;BME280;27385;51.096;17.190;2023-04-04T00:06:37;101407.10;;;-0.60;64.72
41706;BME280;27385;51.096;17.190;2023-04-04T00:09:12;101406.79;;;-0.61;64.74
41706;BME280;27385;51.096;17.190;2023-04-04T00:11:44;101399.98;;;-0.59;64.99
41706;BME280;27385;51.096;17.190;2023-04-04T00:14:15;101398.05;;;-0.58;65.04
41706;BME280;27385;51.096;17.190;2023-04-04T00:16:46;101397.23;;;-0.60;65.22
41706;BME280;27385;51.096;17.190;2023-04-04T00:19:17;101394.52;;;-0.57;65.27
41706;BME280;27385;51.096;17.190;2023-04-04T00:21:48;101394.38;;;-0.56;65.24
41706;BME280;27385;51.096;17.190;2023-04-04T00:24:19;101390.88;;;-0.54;65.24
41706;BME280;27385;51.096;17.190;2023-04-04T00:26:50;101384.88;;;-0.51;65.38
41706;BME280;27385;51.096;17.190;2023-04-04T00:29:21;101390.85;;;-0.49;65.37
41706;BME280;27385;51.096;17.190;2023-04-04T00:31:51;101387.16;;;-0.49;65.55
41706;BME280;27385;51.096;17.190;2023-04-04T00:34:22;101380.52;;;-0.48;65.41
41706;BME280;27385;51.096;17.190;2023-04-04T00:36:53;101381.70;;;-0.46;65.64
41706;BME280;27385;51.096;17.190;2023-04-04T00:39:24;101378.11;;;-0.45;65.86
41706;BME280;27385;51.096;17.190;2023-04-04T00:41:56;101373.57;;;-0.44;65.75
41706;BME280;27385;51.096;17.190;2023-04-04T00:44:27;101375.52;;;-0.44;65.75
41706;BME280;27385;51.096;17.190;2023-04-04T00:46:58;101372.48;;;-0.43;65.81
41706;BME280;27385;51.096;17.190;2023-04-04T00:49:29;101372.59;;;-0.41;65.97
41706;BME280;27385;51.096;17.190;2023-04-04T00:52:00;101369.08;;;-0.39;65.93
41706;BME280;27385;51.096;17.190;2023-04-04T00:54:31;101367.13;;;-0.38;65.79
41706;BME280;27385;51.096;17.190;2023-04-04T00:57:04;101369.74;;;-0.35;65.99
41706;BME280;27385;51.096;17.190;2023-04-04T00:59:36;101366.79;;;-0.32;65.98
41706;BME280;27385;51.096;17.190;2023-04-04T01:02:08;101366.17;;;-0.32;65.98
41706;BME280;27385;51.096;17.190;2023-04-04T01:04:39;101365.24;;;-0.31;65.97
41706;BME280;27385;51.096;17.190;2023-04-04T01:07:11;101363.85;;;-0.27;65.96
41706;BME280;27385;51.096;17.190;2023-04-04T01:09:42;101358.66;;;-0.29;65.72
41706;BME280;27385;51.096;17.190;2023-04-04T01:12:13;101359.69;;;-0.28;66.00
41706;BME280;27385;51.096;17.190;2023-04-04T01:14:44;101357.44;;;-0.27;65.85
41706;BME280;27385;51.096;17.190;2023-04-04T01:17:15;101354.19;;;-0.30;65.84
41706;BME280;27385;51.096;17.190;2023-04-04T01:19:52;101355.96;;;-0.34;65.86
41706;BME280;27385;51.096;17.190;2023-04-04T01:22:23;101350.30;;;-0.36;65.80
41706;BME280;27385;51.096;17.190;2023-04-04T01:24:57;101346.70;;;-0.42;65.68
41706;BME280;27385;51.096;17.190;2023-04-04T01:27:28;101350.76;;;-0.45;65.90
41706;BME280;27385;51.096;17.190;2023-04-04T01:30:00;101347.86;;;-0.44;65.78
41706;BME280;27385;51.096;17.190;2023-04-04T01:32:38;101346.13;;;-0.45;65.80
41706;BME280;27385;51.096;17.190;2023-04-04T01:35:20;101343.53;;;-0.48;65.89
41706;BME280;27385;51.096;17.190;2023-04-04T01:38:13;101342.59;;;-0.47;66.07
41706;BME280;27385;51.096;17.190;2023-04-04T01:40:49;101339.39;;;-0.46;66.21
41706;BME280;27385;51.096;17.190;2023-04-04T01:43:21;101333.89;;;-0.47;66.09
41706;BME280;27385;51.096;17.190;2023-04-04T01:45:53;101330.76;;;-0.48;66.16
41706;BME280;27385;51.096;17.190;2023-04-04T01:48:24;101332.24;;;-0.48;66.21
41706;BME280;27385;51.096;17.190;2023-04-04T01:50:55;101334.52;;;-0.47;66.26
41706;BME280;27385;51.096;17.190;2023-04-04T01:53:26;101333.80;;;-0.47;66.24
41706;BME280;27385;51.096;17.190;2023-04-04T01:55:57;101329.66;;;-0.47;66.26
41706;BME280;27385;51.096;17.190;2023-04-04T01:58:28;101326.55;;;-0.45;66.19
41706;BME280;27385;51.096;17.190;2023-04-04T02:00:59;101321.70;;;-0.42;65.88
41706;BME280;27385;51.096;17.190;2023-04-04T02:03:30;101317.25;;;-0.40;65.38
41706;BME280;27385;51.096;17.190;2023-04-04T02:06:00;101318.67;;;-0.39;65.34
41706;BME280;27385;51.096;17.190;2023-04-04T02:08:31;101314.95;;;-0.36;65.44
41706;BME280;27385;51.096;17.190;2023-04-04T02:11:02;101317.48;;;-0.32;65.43
41706;BME280;27385;51.096;17.190;2023-04-04T02:13:33;101317.90;;;-0.29;65.37
41706;BME280;27385;51.096;17.190;2023-04-04T02:16:06;101317.77;;;-0.27;65.44
41706;BME280;27385;51.096;17.190;2023-04-04T02:18:37;101316.20;;;-0.25;65.56
41706;BME280;27385;51.096;17.190;2023-04-04T02:21:08;101315.20;;;-0.24;65.45
41706;BME280;27385;51.096;17.190;2023-04-04T02:23:39;101317.85;;;-0.26;65.06
41706;BME280;27385;51.096;17.190;2023-04-04T02:26:10;101314.47;;;-0.27;65.07
41706;BME280;27385;51.096;17.190;2023-04-04T02:28:41;101317.61;;;-0.26;65.17
41706;BME280;27385;51.096;17.190;2023-04-04T02:31:12;101323.73;;;-0.25;65.22
41706;BME280;27385;51.096;17.190;2023-04-04T02:33:42;101320.61;;;-0.25;65.02
41706;BME280;27385;51.096;17.190;2023-04-04T02:36:13;101320.05;;;-0.25;64.93
41706;BME280;27385;51.096;17.190;2023-04-04T02:38:46;101321.61;;;-0.25;64.94
41706;BME280;27385;51.096;17.190;2023-04-04T02:41:17;101324.61;;;-0.24;65.13
41706;BME280;27385;51.096;17.190;2023-04-04T02:43:47;101325.72;;;-0.22;65.37
41706;BME280;27385;51.096;17.190;2023-04-04T02:46:18;101323.27;;;-0.23;65.28
41706;BME280;27385;51.096;17.190;2023-04-04T02:48:49;101328.60;;;-0.24;65.07
41706;BME280;27385;51.096;17.190;2023-04-04T02:51:20;101326.08;;;-0.27;64.96
41706;BME280;27385;51.096;17.190;2023-04-04T02:53:51;101324.33;;;-0.30;65.13
41706;BME280;27385;51.096;17.190;2023-04-04T02:56:20;101329.61;;;-0.34;65.30
41706;BME280;27385;51.096;17.190;2023-04-04T02:58:51;101327.48;;;-0.36;65.43
41706;BME280;27385;51.096;17.190;2023-04-04T03:01:22;101329.42;;;-0.38;65.68
41706;BME280;27385;51.096;17.190;2023-04-04T03:03:53;101327.20;;;-0.42;65.70
41706;BME280;27385;51.096;17.190;2023-04-04T03:06:24;101325.73;;;-0.49;65.80
41706;BME280;27385;51.096;17.190;2023-04-04T03:08:55;101322.02;;;-0.51;65.92
41706;BME280;27385;51.096;17.190;2023-04-04T03:11:25;101323.72;;;-0.54;65.98
41706;BME280;27385;51.096;17.190;2023-04-04T03:13:56;101323.23;;;-0.55;66.07
41706;BME280;27385;51.096;17.190;2023-04-04T03:16:27;101324.38;;;-0.58;66.16
41706;BME280;27385;51.096;17.190;2023-04-04T03:18:58;101326.61;;;-0.61;66.20
41706;BME280;27385;51.096;17.190;2023-04-04T03:21:29;101326.96;;;-0.67;66.46
41706;BME280;27385;51.096;17.190;2023-04-04T03:24:00;101322.73;;;-0.74;66.55
41706;BME280;27385;51.096;17.190;2023-04-04T03:26:31;101324.92;;;-0.82;66.88
41706;BME280;27385;51.096;17.190;2023-04-04T03:29:02;101327.21;;;-0.88;67.01
41706;BME280;27385;51.096;17.190;2023-04-04T03:31:33;101325.75;;;-0.92;67.12
41706;BME280;27385;51.096;17.190;2023-04-04T03:34:04;101329.01;;;-0.95;67.30
41706;BME280;27385;51.096;17.190;2023-04-04T03:36:35;101326.33;;;-0.97;67.27
41706;BME280;27385;51.096;17.190;2023-04-04T03:39:06;101328.69;;;-0.96;67.44
41706;BME280;27385;51.096;17.190;2023-04-04T03:41:36;101331.84;;;-0.93;67.47
41706;BME280;27385;51.096;17.190;2023-04-04T03:44:07;101329.06;;;-0.91;67.68
41706;BME280;27385;51.096;17.190;2023-04-04T03:46:38;101331.40;;;-0.91;67.87
41706;BME280;27385;51.096;17.190;2023-04-04T03:49:09;101334.85;;;-0.91;68.02
41706;BME280;27385;51.096;17.190;2023-04-04T03:51:39;101333.54;;;-0.90;67.97
41706;BME280;27385;51.096;17.190;2023-04-04T03:54:10;101329.79;;;-0.89;68.26
41706;BME280;27385;51.096;17.190;2023-04-04T03:56:41;101330.96;;;-0.88;68.29
41706;BME280;27385;51.096;17.190;2023-04-04T03:59:12;101327.59;;;-0.89;68.42
41706;BME280;27385;51.096;17.190;2023-04-04T04:01:43;101335.36;;;-0.88;68.45
41706;BME280;27385;51.096;17.190;2023-04-04T04:04:14;101325.77;;;-0.84;68.61
41706;BME280;27385;51.096;17.190;2023-04-04T04:06:44;101325.13;;;-0.85;68.58
41706;BME280;27385;51.096;17.190;2023-04-04T04:09:17;101326.45;;;-0.86;68.69
41706;BME280;27385;51.096;17.190;2023-04-04T04:11:48;101325.22;;;-0.85;68.66
41706;BME280;27385;51.096;17.190;2023-04-04T04:14:18;101324.76;;;-0.83;68.86
41706;BME280;27385;51.096;17.190;2023-04-04T04:16:49;101322.80;;;-0.83;68.82
41706;BME280;27385;51.096;17.190;2023-04-04T04:19:20;101324.46;;;-0.82;69.03
41706;BME280;27385;51.096;17.190;2023-04-04T04:21:51;101324.58;;;-0.84;69.05
41706;BME280;27385;51.096;17.190;2023-04-04T04:24:22;101328.89;;;-0.85;69.11
41706;BME280;27385;51.096;17.190;2023-04-04T04:26:54;101326.64;;;-0.83;69.14
41706;BME280;27385;51.096;17.190;2023-04-04T04:29:24;101321.87;;;-0.82;69.20
41706;BME280;27385;51.096;17.190;2023-04-04T04:31:55;101324.30;;;-0.81;69.15
41706;BME280;27385;51.096;17.190;2023-04-04T04:34:26;101323.20;;;-0.82;69.23
41706;BME280;27385;51.096;17.190;2023-04-04T04:36:57;101319.34;;;-0.84;69.21
41706;BME280;27385;51.096;17.190;2023-04-04T04:39:28;101320.73;;;-0.86;69.29
41706;BME280;27385;51.096;17.190;2023-04-04T04:41:59;101319.77;;;-0.88;69.30
41706;BME280;27385;51.096;17.190;2023-04-04T04:44:30;101322.67;;;-0.87;69.34
41706;BME280;27385;51.096;17.190;2023-04-04T04:47:00;101330.35;;;-0.87;69.38
41706;BME280;27385;51.096;17.190;2023-04-04T04:49:32;101322.98;;;-0.87;69.30
41706;BME280;27385;51.096;17.190;2023-04-04T04:52:03;101322.30;;;-0.86;69.41
41706;BME280;27385;51.096;17.190;2023-04-04T04:54:34;101319.82;;;-0.83;69.46
41706;BME280;27385;51.096;17.190;2023-04-04T04:57:05;101316.48;;;-0.81;69.47
41706;BME280;27385;51.096;17.190;2023-04-04T04:59:36;101318.60;;;-0.79;69.38
41706;BME280;27385;51.096;17.190;2023-04-04T05:02:07;101319.54;;;-0.79;69.35
41706;BME280;27385;51.096;17.190;2023-04-04T05:04:38;101323.24;;;-0.76;69.48
41706;BME280;27385;51.096;17.190;2023-04-04T05:07:09;101325.42;;;-0.71;69.37
41706;BME280;27385;51.096;17.190;2023-04-04T05:09:40;101322.16;;;-0.69;69.14
41706;BME280;27385;51.096;17.190;2023-04-04T05:12:11;101325.71;;;-0.66;69.11
41706;BME280;27385;51.096;17.190;2023-04-04T05:14:42;101329.81;;;-0.63;69.07
41706;BME280;27385;51.096;17.190;2023-04-04T05:17:13;101331.81;;;-0.59;69.02
41706;BME280;27385;51.096;17.190;2023-04-04T05:19:44;101334.91;;;-0.55;69.14
41706;BME280;27385;51.096;17.190;2023-04-04T05:22:15;101340.66;;;-0.52;68.94
41706;BME280;27385;51.096;17.190;2023-04-04T05:24:46;101340.67;;;-0.50;68.78
41706;BME280;27385;51.096;17.190;2023-04-04T05:27:17;101339.86;;;-0.45;68.95
41706;BME280;27385;51.096;17.190;2023-04-04T05:29:48;101339.19;;;-0.42;69.00
41706;BME280;27385;51.096;17.190;2023-04-04T05:32:20;101334.51;;;-0.40;68.75
41706;BME280;27385;51.096;17.190;2023-04-04T05:34:52;101338.03;;;-0.40;68.66
41706;BME280;27385;51.096;17.190;2023-04-04T05:37:23;101337.66;;;-0.37;68.71
41706;BME280;27385;51.096;17.190;2023-04-04T05:39:54;101339.42;;;-0.34;68.68
41706;BME280;27385;51.096;17.190;2023-04-04T05:42:25;101341.86;;;-0.33;68.45
41706;BME280;27385;51.096;17.190;2023-04-04T05:44:56;101339.83;;;-0.33;68.41
41706;BME280;27385;51.096;17.190;2023-04-04T05:47:27;101343.42;;;-0.33;68.42
41706;BME280;27385;51.096;17.190;2023-04-04T05:49:57;101339.37;;;-0.30;68.52
41706;BME280;27385;51.096;17.190;2023-04-04T05:52:28;101340.48;;;-0.28;68.44
41706;BME280;27385;51.096;17.190;2023-04-04T05:54:59;101339.73;;;-0.25;68.15
41706;BME280;27385;51.096;17.190;2023-04-04T05:57:30;101343.66;;;-0.24;67.78
41706;BME280;27385;51.096;17.190;2023-04-04T06:00:02;101341.85;;;-0.24;67.65
41706;BME280;27385;51.096;17.190;2023-04-04T06:02:36;101339.33;;;-0.18;68.18
41706;BME280;27385;51.096;17.190;2023-04-04T06:05:09;101335.44;;;-0.13;67.80
41706;BME280;27385;51.096;17.190;2023-04-04T06:07:41;101337.42;;;-0.10;67.84
41706;BME280;27385;51.096;17.190;2023-04-04T06:10:12;101338.08;;;-0.06;67.58
41706;BME280;27385;51.096;17.190;2023-04-04T06:12:43;101340.91;;;-0.04;67.58
41706;BME280;27385;51.096;17.190;2023-04-04T06:15:14;101339.86;;;-0.00;67.51
41706;BME280;27385;51.096;17.190;2023-04-04T06:17:45;101339.25;;;0.04;67.30
41706;BME280;27385;51.096;17.190;2023-04-04T06:20:16;101333.09;;;0.07;67.35
41706;BME280;27385;51.096;17.190;2023-04-04T06:22:49;101332.48;;;0.11;66.89
41706;BME280;27385;51.096;17.190;2023-04-04T06:25:20;101337.42;;;0.11;66.83
41706;BME280;27385;51.096;17.190;2023-04-04T06:27:51;101333.52;;;0.12;66.85
41706;BME280;27385;51.096;17.190;2023-04-04T06:30:22;101336.34;;;0.15;66.99
41706;BME280;27385;51.096;17.190;2023-04-04T06:32:53;101338.18;;;0.19;67.07
41706;BME280;27385;51.096;17.190;2023-04-04T06:35:24;101330.90;;;0.22;66.70
41706;BME280;27385;51.096;17.190;2023-04-04T06:37:56;101330.08;;;0.26;66.62
41706;BME280;27385;51.096;17.190;2023-04-04T06:40:27;101325.39;;;0.31;66.59
41706;BME280;27385;51.096;17.190;2023-04-04T06:42:58;101328.16;;;0.36;66.66
41706;BME280;27385;51.096;17.190;2023-04-04T06:45:29;101327.36;;;0.43;66.48
41706;BME280;27385;51.096;17.190;2023-04-04T06:48:02;101327.70;;;0.49;66.36
41706;BME280;27385;51.096;17.190;2023-04-04T06:50:32;101324.27;;;0.53;66.01
41706;BME280;27385;51.096;17.190;2023-04-04T06:53:04;101322.78;;;0.57;65.82
41706;BME280;27385;51.096;17.190;2023-04-04T06:55:35;101326.96;;;0.61;65.72
41706;BME280;27385;51.096;17.190;2023-04-04T06:58:06;101326.51;;;0.64;65.37
41706;BME280;27385;51.096;17.190;2023-04-04T07:00:37;101330.84;;;0.66;65.44
41706;BME280;27385;51.096;17.190;2023-04-04T07:03:08;101325.98;;;0.70;65.08
41706;BME280;27385;51.096;17.190;2023-04-04T07:05:39;101331.09;;;0.72;64.82
41706;BME280;27385;51.096;17.190;2023-04-04T07:08:10;101333.33;;;0.76;65.17
41706;BME280;27385;51.096;17.190;2023-04-04T07:10:41;101332.09;;;0.82;65.12
41706;BME280;27385;51.096;17.190;2023-04-04T07:13:11;101331.02;;;0.87;64.81
41706;BME280;27385;51.096;17.190;2023-04-04T07:15:45;101331.66;;;0.91;64.67
41706;BME280;27385;51.096;17.190;2023-04-04T07:18:18;101333.09;;;0.98;64.99
41706;BME280;27385;51.096;17.190;2023-04-04T07:20:49;101332.56;;;1.03;64.41
41706;BME280;27385;51.096;17.190;2023-04-04T07:23:20;101332.89;;;1.07;63.62
41706;BME280;27385;51.096;17.190;2023-04-04T07:25:51;101330.54;;;1.10;63.95
41706;BME280;27385;51.096;17.190;2023-04-04T07:28:22;101330.00;;;1.13;64.05
41706;BME280;27385;51.096;17.190;2023-04-04T07:30:53;101329.45;;;1.16;63.31
41706;BME280;27385;51.096;17.190;2023-04-04T07:33:24;101329.62;;;1.19;63.43
41706;BME280;27385;51.096;17.190;2023-04-04T07:35:55;101325.16;;;1.23;63.26
41706;BME280;27385;51.096;17.190;2023-04-04T07:38:26;101328.45;;;1.25;63.17
41706;BME280;27385;51.096;17.190;2023-04-04T07:40:57;101329.55;;;1.26;62.86
41706;BME280;27385;51.096;17.190;2023-04-04T07:43:28;101329.41;;;1.29;63.05
41706;BME280;27385;51.096;17.190;2023-04-04T07:46:00;101328.32;;;1.33;62.71
41706;BME280;27385;51.096;17.190;2023-04-04T07:48:31;101330.29;;;1.36;62.84
41706;BME280;27385;51.096;17.190;2023-04-04T07:51:04;101336.02;;;1.39;62.56
41706;BME280;27385;51.096;17.190;2023-04-04T07:53:35;101330.77;;;1.41;62.16
41706;BME280;27385;51.096;17.190;2023-04-04T07:56:06;101327.30;;;1.40;62.08
41706;BME280;27385;51.096;17.190;2023-04-04T07:58:36;101329.13;;;1.44;62.36
41706;BME280;27385;51.096;17.190;2023-04-04T08:01:07;101326.77;;;1.46;61.65
41706;BME280;27385;51.096;17.190;2023-04-04T08:03:38;101324.73;;;1.52;62.37
41706;BME280;27385;51.096;17.190;2023-04-04T08:06:10;101327.41;;;1.57;62.29
41706;BME280;27385;51.096;17.190;2023-04-04T08:08:40;101330.48;;;1.61;62.11
41706;BME280;27385;51.096;17.190;2023-04-04T08:11:11;101325.14;;;1.62;61.55
41706;BME280;27385;51.096;17.190;2023-04-04T08:13:42;101325.67;;;1.60;61.48
41706;BME280;27385;51.096;17.190;2023-04-04T08:16:13;101322.54;;;1.60;60.67
41706;BME280;27385;51.096;17.190;2023-04-04T08:18:44;101324.59;;;1.60;60.94
41706;BME280;27385;51.096;17.190;2023-04-04T08:21:14;101321.92;;;1.62;60.69
41706;BME280;27385;51.096;17.190;2023-04-04T08:23:45;101318.67;;;1.62;60.12
41706;BME280;27385;51.096;17.190;2023-04-04T08:26:16;101321.91;;;1.62;59.78
41706;BME280;27385;51.096;17.190;2023-04-04T08:28:48;101324.03;;;1.62;59.05
41706;BME280;27385;51.096;17.190;2023-04-04T08:31:19;101327.11;;;1.64;59.23
41706;BME280;27385;51.096;17.190;2023-04-04T08:33:50;101327.89;;;1.62;59.15
41706;BME280;27385;51.096;17.190;2023-04-04T08:36:22;101325.77;;;1.63;59.63
41706;BME280;27385;51.096;17.190;2023-04-04T08:38:52;101321.20;;;1.66;59.74
41706;BME280;27385;51.096;17.190;2023-04-04T08:41:24;101316.09;;;1.67;58.69
41706;BME280;27385;51.096;17.190;2023-04-04T08:43:55;101318.60;;;1.64;57.49
41706;BME280;27385;51.096;17.190;2023-04-04T08:46:27;101313.65;;;1.65;58.65
41706;BME280;27385;51.096;17.190;2023-04-04T08:48:59;101310.59;;;1.69;58.31
41706;BME280;27385;51.096;17.190;2023-04-04T08:51:33;101314.21;;;1.72;58.05
41706;BME280;27385;51.096;17.190;2023-04-04T08:54:06;101311.92;;;1.74;57.28
41706;BME280;27385;51.096;17.190;2023-04-04T08:56:37;101311.46;;;1.77;57.42
41706;BME280;27385;51.096;17.190;2023-04-04T08:59:08;101310.44;;;1.78;57.50
41706;BME280;27385;51.096;17.190;2023-04-04T09:01:40;101307.45;;;1.81;57.68
41706;BME280;27385;51.096;17.190;2023-04-04T09:04:11;101305.41;;;1.86;57.39
41706;BME280;27385;51.096;17.190;2023-04-04T09:06:42;101307.05;;;1.87;56.53
41706;BME280;27385;51.096;17.190;2023-04-04T09:09:15;101304.85;;;1.81;55.46
41706;BME280;27385;51.096;17.190;2023-04-04T09:11:47;101302.27;;;1.78;56.71
41706;BME280;27385;51.096;17.190;2023-04-04T09:14:21;101303.11;;;1.82;56.10
41706;BME280;27385;51.096;17.190;2023-04-04T09:16:51;101297.61;;;1.85;55.78
41706;BME280;27385;51.096;17.190;2023-04-04T09:19:23;101296.27;;;1.84;55.37
41706;BME280;27385;51.096;17.190;2023-04-04T09:21:54;101299.73;;;1.90;56.21
41706;BME280;27385;51.096;17.190;2023-04-04T09:24:25;101297.91;;;1.98;56.65
41706;BME280;27385;51.096;17.190;2023-04-04T09:27:07;101297.98;;;2.09;56.77
41706;BME280;27385;51.096;17.190;2023-04-04T09:29:40;101300.78;;;2.19;55.89
41706;BME280;27385;51.096;17.190;2023-04-04T09:32:14;101301.58;;;2.21;55.03
41706;BME280;27385;51.096;17.190;2023-04-04T09:34:46;101303.23;;;2.22;55.41
41706;BME280;27385;51.096;17.190;2023-04-04T09:37:17;101301.17;;;2.27;54.90
41706;BME280;27385;51.096;17.190;2023-04-04T09:39:48;101299.90;;;2.32;54.38
41706;BME280;27385;51.096;17.190;2023-04-04T09:42:19;101300.98;;;2.38;54.98
41706;BME280;27385;51.096;17.190;2023-04-04T09:44:53;101302.14;;;2.46;54.95
41706;BME280;27385;51.096;17.190;2023-04-04T09:47:25;101304.58;;;2.51;54.19
41706;BME280;27385;51.096;17.190;2023-04-04T09:49:58;101304.10;;;2.52;54.53
41706;BME280;27385;51.096;17.190;2023-04-04T09:52:32;101302.98;;;2.55;54.38
41706;BME280;27385;51.096;17.190;2023-04-04T09:55:05;101299.30;;;2.48;53.47
41706;BME280;27385;51.096;17.190;2023-04-04T09:57:36;101302.41;;;2.33;53.39
41706;BME280;27385;51.096;17.190;2023-04-04T10:00:09;101302.37;;;2.18;53.45
41706;BME280;27385;51.096;17.190;2023-04-04T10:02:47;101303.88;;;2.13;53.39
41706;BME280;27385;51.096;17.190;2023-04-04T10:05:18;101302.38;;;2.13;53.69
41706;BME280;27385;51.096;17.190;2023-04-04T10:07:50;101306.93;;;2.22;54.33
41706;BME280;27385;51.096;17.190;2023-04-04T10:10:21;101301.80;;;2.30;53.92
41706;BME280;27385;51.096;17.190;2023-04-04T10:12:52;101297.60;;;2.39;54.40
41706;BME280;27385;51.096;17.190;2023-04-04T10:15:35;101294.42;;;2.44;52.93
41706;BME280;27385;51.096;17.190;2023-04-04T10:18:08;101295.05;;;2.47;52.59
41706;BME280;27385;51.096;17.190;2023-04-04T10:20:39;101290.85;;;2.56;53.22
41706;BME280;27385;51.096;17.190;2023-04-04T10:23:10;101279.32;;;2.63;51.90
41706;BME280;27385;51.096;17.190;2023-04-04T10:25:42;101277.95;;;2.69;51.63
41706;BME280;27385;51.096;17.190;2023-04-04T10:28:14;101277.54;;;2.77;52.01
41706;BME280;27385;51.096;17.190;2023-04-04T10:30:51;101280.20;;;2.81;52.19
41706;BME280;27385;51.096;17.190;2023-04-04T10:33:26;101280.89;;;2.83;51.45
41706;BME280;27385;51.096;17.190;2023-04-04T10:36:02;101278.39;;;2.79;51.02
41706;BME280;27385;51.096;17.190;2023-04-04T10:38:42;101277.95;;;2.75;51.60
41706;BME280;27385;51.096;17.190;2023-04-04T10:41:14;101279.73;;;2.80;52.70
41706;BME280;27385;51.096;17.190;2023-04-04T10:43:48;101280.34;;;2.85;52.21
41706;BME280;27385;51.096;17.190;2023-04-04T10:46:21;101277.99;;;2.81;51.76
41706;BME280;27385;51.096;17.190;2023-04-04T10:49:00;101274.24;;;2.73;51.77
41706;BME280;27385;51.096;17.190;2023-04-04T10:51:32;101276.44;;;2.73;52.80
41706;BME280;27385;51.096;17.190;2023-04-04T10:54:03;101279.00;;;2.84;52.76
41706;BME280;27385;51.096;17.190;2023-04-04T10:56:34;101276.27;;;2.92;52.10
41706;BME280;27385;51.096;17.190;2023-04-04T10:59:12;101268.55;;;2.92;51.61
41706;BME280;27385;51.096;17.190;2023-04-04T11:01:54;101260.05;;;2.91;51.23
41706;BME280;27385;51.096;17.190;2023-04-04T11:04:38;101260.50;;;2.94;51.37
41706;BME280;27385;51.096;17.190;2023-04-04T11:07:16;101254.96;;;2.98;50.91
41706;BME280;27385;51.096;17.190;2023-04-04T11:09:48;101255.73;;;3.03;51.49
41706;BME280;27385;51.096;17.190;2023-04-04T11:12:25;101255.61;;;3.08;51.69
41706;BME280;27385;51.096;17.190;2023-04-04T11:15:09;101255.63;;;3.17;51.31
41706;BME280;27385;51.096;17.190;2023-04-04T11:17:56;101253.05;;;3.15;50.06
41706;BME280;27385;51.096;17.190;2023-04-04T11:20:32;101248.67;;;3.08;49.53
41706;BME280;27385;51.096;17.190;2023-04-04T11:23:05;101248.77;;;2.93;49.67
41706;BME280;27385;51.096;17.190;2023-04-04T11:25:39;101246.55;;;2.81;50.07
41706;BME280;27385;51.096;17.190;2023-04-04T11:28:13;101246.20;;;2.71;50.35
41706;BME280;27385;51.096;17.190;2023-04-04T11:30:44;101241.42;;;2.68;51.05
41706;BME280;27385;51.096;17.190;2023-04-04T11:33:28;101237.37;;;2.72;50.88
41706;BME280;27385;51.096;17.190;2023-04-04T11:36:05;101238.23;;;2.75;51.34
41706;BME280;27385;51.096;17.190;2023-04-04T11:38:42;101238.52;;;2.80;50.93
41706;BME280;27385;51.096;17.190;2023-04-04T11:41:18;101236.47;;;2.80;50.90
41706;BME280;27385;51.096;17.190;2023-04-04T11:43:50;101241.74;;;2.81;51.15
41706;BME280;27385;51.096;17.190;2023-04-04T11:46:21;101239.91;;;2.85;51.36
41706;BME280;27385;51.096;17.190;2023-04-04T11:48:54;101241.45;;;2.89;51.33
41706;BME280;27385;51.096;17.190;2023-04-04T11:51:27;101238.70;;;2.89;51.25
41706;BME280;27385;51.096;17.190;2023-04-04T11:53:58;101238.92;;;2.91;51.54
41706;BME280;27385;51.096;17.190;2023-04-04T11:56:34;101245.91;;;2.94;51.46
41706;BME280;27385;51.096;17.190;2023-04-04T11:59:07;101249.15;;;2.95;50.91
41706;BME280;27385;51.096;17.190;2023-04-04T12:01:38;101248.77;;;2.94;51.14
41706;BME280;27385;51.096;17.190;2023-04-04T12:04:09;101241.65;;;2.96;51.51
41706;BME280;27385;51.096;17.190;2023-04-04T12:06:40;101234.11;;;3.04;51.28
41706;BME280;27385;51.096;17.190;2023-04-04T12:09:12;101229.42;;;3.10;51.07
41706;BME280;27385;51.096;17.190;2023-04-04T12:11:46;101232.56;;;3.12;50.44
41706;BME280;27385;51.096;17.190;2023-04-04T12:14:18;101227.95;;;3.07;50.55
41706;BME280;27385;51.096;17.190;2023-04-04T12:16:50;101236.80;;;3.04;51.01
41706;BME280;27385;51.096;17.190;2023-04-04T12:19:23;101234.92;;;3.02;51.02
41706;BME280;27385;51.096;17.190;2023-04-04T12:21:55;101234.69;;;3.01;51.05
41706;BME280;27385;51.096;17.190;2023-04-04T12:24:27;101224.52;;;3.02;51.20
41706;BME280;27385;51.096;17.190;2023-04-04T12:26:57;101220.95;;;3.07;51.11
41706;BME280;27385;51.096;17.190;2023-04-04T12:29:29;101224.29;;;3.13;50.68
41706;BME280;27385;51.096;17.190;2023-04-04T12:32:04;101219.70;;;3.14;50.83
41706;BME280;27385;51.096;17.190;2023-04-04T12:34:42;101217.16;;;3.18;49.68
41706;BME280;27385;51.096;17.190;2023-04-04T12:37:14;101215.85;;;3.13;49.38
41706;BME280;27385;51.096;17.190;2023-04-04T12:39:49;101214.75;;;3.13;50.50
41706;BME280;27385;51.096;17.190;2023-04-04T12:42:24;101217.42;;;3.15;49.90
41706;BME280;27385;51.096;17.190;2023-04-04T12:44:55;101215.73;;;3.06;49.58
41706;BME280;27385;51.096;17.190;2023-04-04T12:47:27;101219.46;;;3.02;50.54
41706;BME280;27385;51.096;17.190;2023-04-04T12:50:00;101218.52;;;3.05;51.05
41706;BME280;27385;51.096;17.190;2023-04-04T12:52:31;101217.78;;;3.07;50.80
41706;BME280;27385;51.096;17.190;2023-04-04T12:55:08;101218.70;;;3.10;50.89
41706;BME280;27385;51.096;17.190;2023-04-04T12:57:40;101216.47;;;3.16;51.06
41706;BME280;27385;51.096;17.190;2023-04-04T13:00:12;101217.92;;;3.20;50.69
41706;BME280;27385;51.096;17.190;2023-04-04T13:02:45;101218.95;;;3.21;50.60
41706;BME280;27385;51.096;17.190;2023-04-04T13:05:19;101212.14;;;3.24;50.34
41706;BME280;27385;51.096;17.190;2023-04-04T13:08:03;101212.35;;;3.28;50.31
41706;BME280;27385;51.096;17.190;2023-04-04T13:10:56;101208.95;;;3.30;49.64